createdAt,value
2024-02-02T00:00:25.131Z,53.00
2024-02-02T00:01:25.245Z,54.56
2024-02-02T00:02:25.346Z,54.14
2024-02-02T00:03:25.509Z,53.40
2024-02-02T00:04:25.405Z,55.24
2024-02-02T00:05:25.362Z,54.03
2024-02-02T00:06:25.507Z,54.92
2024-02-02T00:07:25.596Z,54.91
2024-02-02T00:08:25.556Z,54.70
2024-02-02T00:09:25.684Z,54.44
2024-02-02T00:10:25.705Z,52.43
2024-02-02T00:11:25.740Z,53.61
2024-02-02T00:12:25.881Z,52.83
2024-02-02T00:13:25.846Z,53.31
2024-02-02T00:14:25.916Z,54.40
2024-02-02T00:15:26.038Z,54.64
2024-02-02T00:16:26.026Z,53.97
2024-02-02T00:17:26.155Z,54.12
2024-02-02T00:18:26.453Z,53.01
2024-02-02T00:19:26.271Z,53.65
2024-02-02T00:20:26.305Z,54.03
2024-02-02T00:21:26.400Z,53.70
2024-02-02T00:22:26.444Z,54.16
2024-02-02T00:23:26.482Z,53.60
2024-02-02T00:24:26.683Z,53.39
2024-02-02T00:25:26.584Z,53.71
2024-02-02T00:26:26.690Z,53.85
2024-02-02T00:27:26.800Z,52.68
2024-02-02T00:28:26.772Z,53.25
2024-02-02T00:29:26.824Z,52.54
2024-02-02T00:30:26.935Z,53.23
2024-02-02T00:31:26.973Z,52.49
2024-02-02T00:32:27.004Z,52.69
2024-02-02T00:33:27.157Z,52.79
2024-02-02T00:34:27.279Z,52.45
2024-02-02T00:35:27.181Z,51.56
2024-02-02T00:36:27.264Z,52.82
2024-02-02T00:37:27.307Z,53.90
2024-02-02T00:38:27.367Z,52.00
2024-02-02T00:39:27.624Z,52.24
2024-02-02T00:40:27.503Z,52.90
2024-02-02T00:41:27.504Z,50.49
2024-02-02T00:42:27.633Z,50.10
2024-02-02T00:43:27.685Z,51.56
2024-02-02T00:44:27.727Z,52.75
2024-02-02T00:45:27.833Z,51.06
2024-02-02T00:46:27.826Z,52.10
2024-02-02T00:47:27.919Z,53.51
2024-02-02T00:48:28.044Z,51.66
2024-02-02T00:49:28.186Z,54.43
2024-02-02T00:50:28.095Z,53.40
2024-02-02T00:51:28.211Z,52.88
2024-02-02T00:52:28.198Z,51.17
2024-02-02T00:53:28.249Z,52.11
2024-02-02T00:54:28.452Z,50.44
2024-02-02T00:55:28.352Z,54.73
2024-02-02T00:56:28.484Z,51.09
2024-02-02T00:57:28.501Z,54.58
2024-02-02T00:58:28.540Z,55.00
2024-02-02T00:59:28.639Z,54.45
2024-02-02T01:00:28.713Z,52.95
2024-02-02T01:01:28.732Z,54.47
2024-02-02T01:02:28.775Z,54.06
2024-02-02T01:03:29.000Z,55.25
2024-02-02T01:04:29.093Z,54.44
2024-02-02T01:05:28.993Z,52.97
2024-02-02T01:06:29.088Z,52.36
2024-02-02T01:07:29.103Z,55.20
2024-02-02T01:08:29.139Z,55.10
2024-02-02T01:09:29.292Z,55.80
2024-02-02T01:10:29.293Z,55.21
2024-02-02T01:11:29.347Z,54.98
2024-02-02T01:12:29.522Z,52.97
2024-02-02T01:13:29.471Z,55.64
2024-02-02T01:14:29.530Z,55.56
2024-02-02T01:15:29.684Z,54.25
2024-02-02T01:16:31.982Z,54.84
2024-02-02T01:17:29.708Z,56.76
2024-02-02T01:18:29.859Z,57.22
2024-02-02T01:19:29.743Z,57.22
2024-02-02T01:20:29.752Z,57.07
2024-02-02T01:21:29.882Z,56.19
2024-02-02T01:22:29.733Z,57.54
2024-02-02T01:23:29.810Z,58.00
2024-02-02T01:24:29.870Z,56.54
2024-02-02T01:25:29.796Z,55.90
2024-02-02T01:26:29.881Z,56.05
2024-02-02T01:27:29.911Z,56.80
2024-02-02T01:28:29.863Z,56.73
2024-02-02T01:29:29.850Z,56.00
2024-02-02T01:30:29.896Z,57.91
2024-02-02T01:31:29.911Z,56.69
2024-02-02T01:32:29.939Z,58.39
2024-02-02T01:33:29.999Z,55.96
2024-02-02T01:34:30.035Z,56.82
2024-02-02T01:35:29.954Z,56.38
2024-02-02T01:36:30.002Z,57.42
2024-02-02T01:37:29.972Z,58.51
2024-02-02T01:38:30.009Z,57.34
2024-02-02T01:39:30.046Z,56.02
2024-02-02T01:40:30.045Z,56.89
2024-02-02T01:41:30.064Z,57.88
2024-02-02T01:42:30.078Z,56.63
2024-02-02T01:43:30.092Z,58.89
2024-02-02T01:44:30.106Z,56.91
2024-02-02T01:45:30.165Z,57.38
2024-02-02T01:46:30.126Z,58.67
2024-02-02T01:47:30.299Z,58.14
2024-02-02T01:48:30.448Z,56.85
2024-02-02T01:49:30.364Z,57.70
2024-02-02T01:50:30.177Z,57.27
2024-02-02T01:51:30.301Z,58.81
2024-02-02T01:52:30.156Z,59.20
2024-02-02T01:53:30.177Z,58.72
2024-02-02T01:54:30.310Z,59.23
2024-02-02T01:55:30.316Z,57.78
2024-02-02T01:56:30.387Z,58.72
2024-02-02T01:57:30.545Z,57.55
2024-02-02T01:58:30.552Z,58.33
2024-02-02T01:59:30.593Z,59.33
2024-02-02T02:00:30.751Z,58.78
2024-02-02T02:01:30.755Z,59.33
2024-02-02T02:02:30.807Z,58.70
2024-02-02T02:03:30.950Z,58.47
2024-02-02T02:04:30.970Z,60.00
2024-02-02T02:05:31.053Z,58.40
2024-02-02T02:06:31.120Z,58.54
2024-02-02T02:07:31.201Z,59.27
2024-02-02T02:08:31.179Z,58.35
2024-02-02T02:09:31.275Z,59.54
2024-02-02T02:10:31.356Z,60.75
2024-02-02T02:11:31.413Z,59.06
2024-02-02T02:12:31.519Z,58.04
2024-02-02T02:13:31.633Z,58.98
2024-02-02T02:14:31.609Z,59.87
2024-02-02T02:15:31.807Z,60.00
2024-02-02T02:16:31.730Z,58.26
2024-02-02T02:17:31.846Z,59.81
2024-02-02T02:18:31.953Z,58.62
2024-02-02T02:19:32.045Z,59.80
2024-02-02T02:20:32.069Z,59.89
2024-02-02T02:21:32.219Z,59.53
2024-02-02T02:22:32.156Z,60.40
2024-02-02T02:23:32.241Z,59.47
2024-02-02T02:24:32.378Z,59.94
2024-02-02T02:25:32.409Z,59.94
2024-02-02T02:26:32.494Z,59.95
2024-02-02T02:27:32.580Z,59.46
2024-02-02T02:28:32.545Z,60.20
2024-02-02T02:29:32.663Z,60.61
2024-02-02T02:30:32.772Z,60.82
2024-02-02T02:31:32.775Z,59.20
2024-02-02T02:32:32.932Z,59.65
2024-02-02T02:33:32.997Z,58.70
2024-02-02T02:34:33.111Z,59.18
2024-02-02T02:35:33.064Z,60.51
2024-02-02T02:36:33.154Z,60.26
2024-02-02T02:37:33.212Z,60.77
2024-02-02T02:38:33.273Z,60.58
2024-02-02T02:39:33.413Z,60.84
2024-02-02T02:40:33.459Z,59.77
2024-02-02T02:41:33.508Z,60.84
2024-02-02T02:42:33.630Z,61.11
2024-02-02T02:43:33.652Z,60.68
2024-02-02T02:44:33.735Z,61.06
2024-02-02T02:45:33.934Z,60.35
2024-02-02T02:46:33.929Z,61.57
2024-02-02T02:47:34.073Z,60.97
2024-02-02T02:48:34.120Z,61.50
2024-02-02T02:49:34.336Z,59.83
2024-02-02T02:50:34.134Z,61.05
2024-02-02T02:51:34.199Z,60.34
2024-02-02T02:52:34.259Z,60.22
2024-02-02T02:53:34.325Z,59.27
2024-02-02T02:54:34.470Z,60.71
2024-02-02T02:55:34.468Z,60.27
2024-02-02T02:56:34.518Z,60.51
2024-02-02T02:57:34.616Z,59.67
2024-02-02T02:58:34.620Z,60.75
2024-02-02T02:59:34.764Z,59.62
2024-02-02T03:00:34.807Z,60.25
2024-02-02T03:01:34.851Z,59.20
2024-02-02T03:02:34.923Z,61.45
2024-02-02T03:03:35.139Z,60.17
2024-02-02T03:04:35.167Z,59.76
2024-02-02T03:05:35.206Z,61.13
2024-02-02T03:06:35.333Z,61.33
2024-02-02T03:07:35.267Z,60.68
2024-02-02T03:08:35.322Z,60.16
2024-02-02T03:09:35.443Z,59.56
2024-02-02T03:10:35.491Z,59.69
2024-02-02T03:11:35.532Z,60.08
2024-02-02T03:12:35.625Z,59.86
2024-02-02T03:13:35.677Z,59.70
2024-02-02T03:14:35.750Z,60.22
2024-02-02T03:15:35.903Z,60.18
2024-02-02T03:16:35.881Z,57.94
2024-02-02T03:17:36.001Z,60.17
2024-02-02T03:18:36.166Z,60.59
2024-02-02T03:19:36.199Z,60.27
2024-02-02T03:20:36.164Z,59.75
2024-02-02T03:21:36.353Z,59.56
2024-02-02T03:22:36.286Z,59.62
2024-02-02T03:23:36.457Z,58.95
2024-02-02T03:24:36.439Z,60.06
2024-02-02T03:25:36.485Z,58.95
2024-02-02T03:26:36.548Z,58.95
2024-02-02T03:27:36.683Z,58.76
2024-02-02T03:28:36.668Z,59.68
2024-02-02T03:29:36.770Z,59.95
2024-02-02T03:30:36.865Z,58.46
2024-02-02T03:31:36.942Z,59.09
2024-02-02T03:32:37.032Z,59.36
2024-02-02T03:33:37.183Z,58.56
2024-02-02T03:34:37.196Z,58.63
2024-02-02T03:35:37.172Z,57.81
2024-02-02T03:36:37.298Z,59.44
2024-02-02T03:37:37.356Z,59.51
2024-02-02T03:38:37.374Z,59.29
2024-02-02T03:39:37.530Z,57.66
2024-02-02T03:40:37.548Z,58.00
2024-02-02T03:41:37.607Z,58.01
2024-02-02T03:42:37.710Z,57.75
2024-02-02T03:43:37.733Z,59.58
2024-02-02T03:44:37.820Z,58.90
2024-02-02T03:45:37.939Z,59.51
2024-02-02T03:46:37.966Z,59.12
2024-02-02T03:47:38.095Z,58.29
2024-02-02T03:48:38.236Z,55.75
2024-02-02T03:49:38.160Z,57.82
2024-02-02T03:50:38.240Z,58.09
2024-02-02T03:51:38.357Z,58.53
2024-02-02T03:52:38.394Z,58.11
2024-02-02T03:53:38.453Z,58.51
2024-02-02T03:54:38.515Z,57.44
2024-02-02T03:55:38.597Z,57.48
2024-02-02T03:56:38.631Z,58.03
2024-02-02T03:57:38.806Z,57.20
2024-02-02T03:58:38.791Z,57.69
2024-02-02T03:59:38.842Z,57.20
2024-02-02T04:00:39.003Z,57.94
2024-02-02T04:01:39.016Z,57.55
2024-02-02T04:02:39.139Z,56.87
2024-02-02T04:03:39.231Z,57.60
2024-02-02T04:04:39.247Z,56.22
2024-02-02T04:05:39.319Z,57.20
2024-02-02T04:06:39.421Z,56.84
2024-02-02T04:07:39.415Z,56.00
2024-02-02T04:08:41.136Z,55.12
2024-02-02T04:09:39.565Z,57.85
2024-02-02T04:10:39.510Z,57.58
2024-02-02T04:11:39.567Z,57.05
2024-02-02T04:12:39.585Z,56.39
2024-02-02T04:13:39.621Z,56.01
2024-02-02T04:14:39.629Z,55.85
2024-02-02T04:15:39.730Z,57.01
2024-02-02T04:16:39.627Z,57.60
2024-02-02T04:17:39.662Z,56.75
2024-02-02T04:18:39.796Z,56.72
2024-02-02T04:19:39.811Z,56.58
2024-02-02T04:20:39.716Z,56.39
2024-02-02T04:21:39.711Z,57.31
2024-02-02T04:22:39.732Z,56.61
2024-02-02T04:23:39.737Z,54.84
2024-02-02T04:24:39.761Z,55.27
2024-02-02T04:25:39.740Z,55.84
2024-02-02T04:26:39.798Z,56.54
2024-02-02T04:27:39.840Z,55.75
2024-02-02T04:28:39.790Z,55.99
2024-02-02T04:29:39.835Z,56.70
2024-02-02T04:30:39.874Z,56.50
2024-02-02T04:31:39.871Z,55.97
2024-02-02T04:32:40.028Z,55.98
2024-02-02T04:33:39.915Z,55.64
2024-02-02T04:34:40.077Z,56.48
2024-02-02T04:35:39.890Z,56.04
2024-02-02T04:36:39.996Z,56.37
2024-02-02T04:37:40.930Z,54.69
2024-02-02T04:38:39.937Z,55.56
2024-02-02T04:39:40.009Z,55.31
2024-02-02T04:40:39.952Z,55.33
2024-02-02T04:41:40.040Z,54.99
2024-02-02T04:42:40.002Z,54.70
2024-02-02T04:43:40.067Z,54.92
2024-02-02T04:44:40.022Z,54.45
2024-02-02T04:45:40.059Z,53.97
2024-02-02T04:46:40.052Z,55.10
2024-02-02T04:47:40.075Z,54.60
2024-02-02T04:48:40.269Z,55.12
2024-02-02T04:49:40.191Z,54.14
2024-02-02T04:50:40.095Z,54.04
2024-02-02T04:51:40.190Z,54.78
2024-02-02T04:52:40.227Z,55.68
2024-02-02T04:53:40.284Z,54.93
2024-02-02T04:54:40.351Z,55.44
2024-02-02T04:55:40.449Z,55.35
2024-02-02T04:56:40.497Z,54.38
2024-02-02T04:57:40.645Z,53.73
2024-02-02T04:58:40.661Z,53.22
2024-02-02T04:59:40.718Z,55.37
2024-02-02T05:00:40.804Z,52.59
2024-02-02T05:01:40.937Z,54.61
2024-02-02T05:02:40.955Z,53.93
2024-02-02T05:03:48.369Z,50.00
2024-02-02T05:04:48.346Z,50.00
2024-02-02T05:05:48.379Z,50.00
2024-02-02T05:06:48.359Z,50.00
2024-02-02T05:07:48.460Z,50.00
2024-02-02T05:08:48.412Z,50.30
2024-02-02T05:09:48.430Z,50.58
2024-02-02T05:10:48.462Z,52.28
2024-02-02T05:11:48.416Z,50.90
2024-02-02T05:12:48.487Z,50.50
2024-02-02T05:13:48.449Z,50.00
2024-02-02T05:14:48.451Z,50.63
2024-02-02T05:15:48.465Z,51.75
2024-02-02T05:16:48.446Z,51.54
2024-02-02T05:17:48.597Z,52.14
2024-02-02T05:18:48.609Z,50.75
2024-02-02T05:19:48.470Z,50.93
2024-02-02T05:20:48.489Z,50.03
2024-02-02T05:21:48.518Z,51.00
2024-02-02T05:22:48.501Z,51.71
2024-02-02T05:23:49.994Z,50.53
2024-02-02T05:24:48.577Z,50.24
2024-02-02T05:25:48.564Z,51.44
2024-02-02T05:26:48.590Z,51.63
2024-02-02T05:27:48.568Z,52.37
2024-02-02T05:28:48.537Z,51.08
2024-02-02T05:29:48.651Z,52.25
2024-02-02T05:30:48.756Z,52.96
2024-02-02T05:31:48.794Z,52.01
2024-02-02T05:32:48.921Z,51.22
2024-02-02T05:33:49.008Z,51.49
2024-02-02T05:34:49.080Z,52.27
2024-02-02T05:35:49.071Z,51.84
2024-02-02T05:36:49.145Z,51.08
2024-02-02T05:37:49.245Z,51.15
2024-02-02T05:38:49.296Z,51.49
2024-02-02T05:39:49.443Z,52.86
2024-02-02T05:40:49.409Z,52.66
2024-02-02T05:41:49.512Z,51.79
2024-02-02T05:42:49.627Z,52.21
2024-02-02T05:43:49.643Z,51.79
2024-02-02T05:44:49.745Z,52.17
2024-02-02T05:45:49.770Z,51.87
2024-02-02T05:46:49.843Z,51.76
2024-02-02T05:47:49.969Z,52.42
2024-02-02T05:48:50.910Z,52.08
2024-02-02T05:49:50.084Z,51.99
2024-02-02T05:50:50.138Z,52.71
2024-02-02T05:51:50.186Z,52.51
2024-02-02T05:52:50.215Z,53.07
2024-02-02T05:53:50.245Z,53.71
2024-02-02T05:54:50.314Z,52.44
2024-02-02T05:55:50.379Z,52.00
2024-02-02T05:56:50.482Z,52.52
2024-02-02T05:57:50.488Z,53.54
2024-02-02T05:58:50.553Z,54.18
2024-02-02T05:59:50.631Z,53.19
2024-02-02T06:00:50.719Z,52.61
2024-02-02T06:01:50.671Z,53.16
2024-02-02T06:02:50.748Z,54.61
2024-02-02T06:03:50.964Z,52.97
2024-02-02T06:04:50.865Z,50.23
2024-02-02T06:05:51.024Z,51.86
2024-02-02T06:06:50.992Z,54.49
2024-02-02T06:07:50.965Z,53.13
2024-02-02T06:08:51.046Z,53.38
2024-02-02T06:09:51.030Z,55.06
2024-02-02T06:10:51.083Z,51.64
2024-02-02T06:11:51.210Z,53.66
2024-02-02T06:12:51.264Z,54.14
2024-02-02T06:13:51.199Z,53.75
2024-02-02T06:14:51.381Z,52.37
2024-02-02T06:15:51.287Z,54.54
2024-02-02T06:16:51.453Z,52.42
2024-02-02T06:17:53.628Z,53.32
2024-02-02T06:18:51.601Z,52.12
2024-02-02T06:19:51.595Z,55.04
2024-02-02T06:20:51.591Z,53.98
2024-02-02T06:21:51.592Z,54.85
2024-02-02T06:22:51.610Z,50.81
2024-02-02T06:23:51.699Z,55.35
2024-02-02T06:24:51.721Z,52.29
2024-02-02T06:25:51.771Z,57.66
2024-02-02T06:26:51.815Z,56.02
2024-02-02T06:27:51.848Z,53.74
2024-02-02T06:28:51.879Z,54.39
2024-02-02T06:29:51.959Z,53.81
2024-02-02T06:30:52.014Z,54.25
2024-02-02T06:31:52.101Z,55.74
2024-02-02T06:32:52.227Z,55.54
2024-02-02T06:33:52.232Z,55.43
2024-02-02T06:34:52.236Z,55.13
2024-02-02T06:35:52.230Z,56.60
2024-02-02T06:36:52.244Z,54.48
2024-02-02T06:37:52.278Z,54.38
2024-02-02T06:38:52.360Z,55.26
2024-02-02T06:39:52.345Z,52.45
2024-02-02T06:40:52.391Z,53.25
2024-02-02T06:41:52.456Z,52.02
2024-02-02T06:42:52.486Z,54.67
2024-02-02T06:43:52.546Z,52.99
2024-02-02T06:44:52.646Z,52.81
2024-02-02T06:45:52.635Z,54.15
2024-02-02T06:46:52.685Z,53.74
2024-02-02T06:47:52.776Z,55.31
2024-02-02T06:48:52.897Z,51.67
2024-02-02T06:49:52.864Z,53.12
2024-02-02T06:50:52.864Z,53.70
2024-02-02T06:51:52.874Z,52.75
2024-02-02T06:52:52.917Z,54.78
2024-02-02T06:53:53.002Z,54.38
2024-02-02T06:54:52.978Z,56.20
2024-02-02T06:55:53.140Z,54.45
2024-02-02T06:56:53.118Z,54.84
2024-02-02T06:57:53.112Z,57.75
2024-02-02T06:58:53.234Z,55.46
2024-02-02T06:59:53.155Z,56.45
2024-02-02T07:00:53.304Z,57.01
2024-02-02T07:01:53.193Z,55.61
2024-02-02T07:02:53.280Z,53.78
2024-02-02T07:03:53.315Z,55.28
2024-02-02T07:04:53.262Z,56.56
2024-02-02T07:05:53.359Z,56.84
2024-02-02T07:06:53.346Z,56.39
2024-02-02T07:07:53.328Z,56.84
2024-02-02T07:08:53.361Z,55.98
2024-02-02T07:09:53.326Z,57.02
2024-02-02T07:10:53.401Z,58.29
2024-02-02T07:11:53.460Z,58.35
2024-02-02T07:12:53.456Z,56.23
2024-02-02T07:13:53.414Z,56.93
2024-02-02T07:14:53.452Z,58.98
2024-02-02T07:15:53.430Z,60.00
2024-02-02T07:16:53.479Z,58.95
2024-02-02T07:17:53.582Z,59.60
2024-02-02T07:18:53.654Z,57.04
2024-02-02T07:19:53.558Z,58.12
2024-02-02T07:20:53.567Z,57.03
2024-02-02T07:21:53.582Z,59.09
2024-02-02T07:22:53.504Z,57.81
2024-02-02T07:23:53.678Z,60.35
2024-02-02T07:24:53.573Z,57.32
2024-02-02T07:25:53.745Z,58.59
2024-02-02T07:26:53.592Z,56.99
2024-02-02T07:27:53.578Z,57.89
2024-02-02T07:28:53.720Z,60.30
2024-02-02T07:29:53.611Z,56.93
2024-02-02T07:30:53.576Z,60.27
2024-02-02T07:31:53.591Z,58.08
2024-02-02T07:32:53.664Z,55.88
2024-02-02T07:33:53.681Z,59.99
2024-02-02T07:34:56.934Z,58.02
2024-02-02T07:35:54.679Z,58.11
2024-02-02T07:36:53.606Z,58.51
2024-02-02T07:37:53.633Z,58.25
2024-02-02T07:38:53.657Z,60.29
2024-02-02T07:39:53.617Z,58.51
2024-02-02T07:40:53.577Z,58.11
2024-02-02T07:41:53.605Z,58.42
2024-02-02T07:42:53.715Z,56.05
2024-02-02T07:43:53.648Z,60.41
2024-02-02T07:44:53.716Z,58.38
2024-02-02T07:45:53.667Z,60.09
2024-02-02T07:46:53.602Z,59.01
2024-02-02T07:47:53.705Z,56.22
2024-02-02T07:48:53.729Z,58.93
2024-02-02T07:49:53.579Z,61.80
2024-02-02T07:50:53.837Z,60.42
2024-02-02T07:51:53.624Z,59.51
2024-02-02T07:52:56.325Z,60.80
2024-02-02T07:53:53.578Z,60.71
2024-02-02T07:54:53.551Z,62.42
2024-02-02T07:55:53.554Z,64.49
2024-02-02T07:56:53.579Z,66.55
2024-02-02T07:57:53.583Z,67.20
2024-02-02T07:58:53.536Z,69.51
2024-02-02T07:59:53.575Z,70.61
2024-02-02T08:00:53.692Z,69.54
2024-02-02T08:01:53.547Z,72.56
2024-02-02T08:02:53.563Z,72.95
2024-02-02T08:03:53.637Z,74.59
2024-02-02T08:04:53.710Z,73.49
2024-02-02T08:05:53.696Z,76.39
2024-02-02T08:06:53.617Z,75.47
2024-02-02T08:07:53.686Z,79.70
2024-02-02T08:08:53.534Z,81.12
2024-02-02T08:09:53.665Z,80.64
2024-02-02T08:10:53.576Z,82.35
2024-02-02T08:11:53.787Z,83.02
2024-02-02T08:12:53.512Z,85.45
2024-02-02T08:13:53.576Z,86.44
2024-02-02T08:14:53.548Z,91.13
2024-02-02T08:15:53.498Z,93.39
2024-02-02T08:16:53.549Z,98.63
2024-02-02T08:17:53.756Z,102.11
2024-02-02T08:18:53.675Z,106.65
2024-02-02T08:19:53.578Z,105.69
2024-02-02T08:20:53.574Z,104.35
2024-02-02T08:21:53.485Z,108.42
2024-02-02T08:22:53.495Z,108.88
2024-02-02T08:23:53.704Z,110.90
2024-02-02T08:24:53.526Z,112.99
2024-02-02T08:25:53.495Z,112.67
2024-02-02T08:26:53.488Z,114.79
2024-02-02T08:27:53.605Z,115.71
2024-02-02T08:28:55.338Z,116.56
2024-02-02T08:29:53.514Z,117.96
2024-02-02T08:30:53.510Z,121.75
2024-02-02T08:31:53.499Z,122.86
2024-02-02T08:32:53.601Z,123.67
2024-02-02T08:33:53.693Z,122.50
2024-02-02T08:34:53.532Z,124.02
2024-02-02T08:35:53.551Z,124.54
2024-02-02T08:36:53.570Z,124.17
2024-02-02T08:37:53.692Z,126.91
2024-02-02T08:38:53.766Z,127.06
2024-02-02T08:39:53.772Z,126.58
2024-02-02T08:40:53.857Z,127.58
2024-02-02T08:41:53.943Z,127.48
2024-02-02T08:42:53.969Z,127.88
2024-02-02T08:43:54.038Z,131.10
2024-02-02T08:44:54.197Z,133.00
2024-02-02T08:45:54.187Z,134.75
2024-02-02T08:46:54.244Z,135.01
2024-02-02T08:47:54.333Z,138.25
2024-02-02T08:48:54.460Z,139.46
2024-02-02T08:49:54.575Z,142.21
2024-02-02T08:50:54.556Z,141.89
2024-02-02T08:51:54.615Z,142.93
2024-02-02T08:52:54.562Z,143.66
2024-02-02T08:53:54.753Z,143.53
2024-02-02T08:54:54.676Z,144.55
2024-02-02T08:55:54.692Z,147.20
2024-02-02T08:56:54.847Z,146.15
2024-02-02T08:57:54.869Z,148.51
2024-02-02T08:58:54.823Z,147.31
2024-02-02T08:59:55.052Z,148.12
2024-02-02T09:00:55.031Z,147.97
2024-02-02T09:01:54.970Z,149.09
2024-02-02T09:38:00.619Z,50.00
2024-02-02T09:39:00.602Z,50.00
2024-02-02T09:40:00.540Z,50.00
2024-02-02T09:41:00.493Z,50.00
2024-02-02T09:42:00.422Z,50.00
2024-02-02T09:43:02.709Z,32.97
2024-02-02T09:44:00.331Z,22.13
2024-02-02T09:45:00.308Z,14.49
2024-02-02T09:46:00.146Z,13.24
2024-02-02T09:47:00.102Z,15.29
2024-02-02T09:48:00.318Z,19.70
2024-02-02T09:49:00.350Z,29.04
2024-02-02T09:49:59.976Z,39.80
2024-02-02T09:51:00.039Z,48.37
2024-02-02T09:51:59.695Z,50.00
2024-02-02T09:52:59.634Z,50.00
2024-02-02T09:53:59.749Z,50.13
2024-02-02T09:54:59.473Z,50.28
2024-02-02T09:55:59.425Z,49.62
2024-02-02T09:56:59.335Z,51.48
2024-02-02T09:57:59.500Z,50.00
2024-02-02T09:58:59.254Z,50.00
2024-02-02T09:59:59.317Z,52.65
2024-02-02T10:01:00.278Z,50.56
2024-02-02T10:02:03.299Z,50.00
2024-02-02T10:03:02.462Z,50.05
2024-02-02T10:04:00.500Z,50.04
2024-02-02T10:04:59.292Z,50.02
2024-02-02T10:05:58.929Z,47.15
2024-02-02T10:06:59.849Z,43.75
2024-02-02T10:07:59.616Z,42.68
2024-02-02T10:08:58.521Z,38.30
2024-02-02T10:09:58.436Z,52.23
2024-02-02T10:10:58.489Z,51.09
2024-02-02T10:11:58.200Z,50.00
2024-02-02T10:12:58.132Z,50.23
2024-02-02T10:13:57.993Z,51.68
2024-02-02T10:14:57.946Z,50.58
2024-02-02T10:15:57.805Z,51.75
2024-02-02T10:16:57.739Z,50.66
2024-02-02T10:17:57.814Z,50.99
2024-02-02T10:18:59.469Z,52.05
2024-02-02T10:19:57.532Z,53.51
2024-02-02T10:20:57.519Z,52.27
2024-02-02T10:21:57.414Z,50.54
2024-02-02T10:22:57.293Z,50.49
2024-02-02T10:24:02.253Z,50.35
2024-02-02T10:24:58.228Z,49.35
2024-02-02T10:25:57.135Z,44.17
2024-02-02T10:26:57.099Z,43.25
2024-02-02T10:27:56.937Z,40.87
2024-02-02T10:28:56.869Z,36.96
2024-02-02T10:29:56.820Z,51.46
2024-02-02T10:30:56.764Z,49.70
2024-02-02T10:31:56.671Z,50.00
2024-02-02T10:32:56.652Z,53.01
2024-02-02T10:33:56.557Z,52.24
2024-02-02T10:34:56.430Z,53.11
2024-02-02T10:35:56.379Z,50.08
2024-02-02T10:36:56.313Z,52.42
2024-02-02T10:37:56.336Z,53.42
2024-02-02T10:38:56.303Z,52.33
2024-02-02T10:39:56.229Z,53.12
2024-02-02T10:40:56.132Z,51.90
2024-02-02T10:41:56.190Z,51.09
2024-02-02T10:42:56.081Z,52.23
2024-02-02T10:43:56.346Z,52.48
2024-02-02T10:44:55.985Z,52.66
2024-02-02T10:45:55.915Z,52.59
2024-02-02T10:46:55.885Z,52.43
2024-02-02T10:47:55.948Z,51.81
2024-02-02T10:48:55.936Z,51.48
2024-02-02T10:49:55.885Z,51.18
2024-02-02T10:50:55.679Z,52.33
2024-02-02T10:51:55.587Z,50.23
2024-02-02T10:52:55.527Z,51.06
2024-02-02T10:53:55.503Z,50.31
2024-02-02T10:54:55.463Z,51.56
2024-02-02T10:55:55.307Z,52.48
2024-02-02T10:56:55.293Z,54.00
2024-02-02T10:57:55.213Z,55.14
2024-02-02T10:58:56.758Z,56.60
2024-02-02T10:59:55.192Z,56.34
2024-02-02T11:00:55.048Z,55.35
2024-02-02T11:01:54.941Z,54.43
2024-02-02T11:02:55.244Z,58.22
2024-02-02T11:03:54.872Z,58.42
2024-02-02T11:04:54.782Z,61.48
2024-02-02T11:05:54.902Z,58.89
2024-02-02T11:06:54.852Z,60.84
2024-02-02T11:07:54.718Z,62.60
2024-02-02T11:08:58.270Z,62.87
2024-02-02T11:09:55.233Z,63.39
2024-02-02T11:10:54.543Z,66.25
2024-02-02T11:11:54.476Z,67.63
2024-02-02T11:12:54.406Z,67.23
2024-02-02T11:13:54.280Z,68.13
2024-02-02T11:14:54.207Z,69.50
2024-02-02T11:15:54.167Z,69.20
2024-02-02T11:16:54.070Z,73.70
2024-02-02T11:17:54.003Z,71.50
2024-02-02T11:18:54.037Z,72.62
2024-02-02T11:19:53.853Z,77.32
2024-02-02T11:20:53.686Z,76.14
2024-02-02T11:21:53.584Z,78.12
2024-02-02T11:22:53.527Z,79.09
2024-02-02T11:23:53.425Z,78.52
2024-02-02T11:24:53.335Z,79.45
2024-02-02T11:25:53.236Z,80.66
2024-02-02T11:26:53.388Z,82.13
2024-02-02T11:27:55.607Z,80.81
2024-02-02T11:28:53.216Z,85.77
2024-02-02T11:29:53.190Z,87.97
2024-02-02T11:30:53.129Z,89.65
2024-02-02T11:31:53.106Z,90.05
2024-02-02T11:32:53.150Z,93.67
2024-02-02T11:33:53.068Z,93.79
2024-02-02T11:34:53.011Z,94.57
2024-02-02T11:35:52.982Z,97.07
2024-02-02T11:36:52.972Z,98.30
2024-02-02T11:37:52.921Z,100.45
2024-02-02T11:38:52.937Z,100.00
2024-02-02T11:39:52.889Z,101.81
2024-02-02T11:40:52.938Z,101.41
2024-02-02T11:41:52.842Z,103.29
2024-02-02T11:42:52.811Z,104.77
2024-02-02T11:43:52.783Z,105.39
2024-02-02T11:44:52.757Z,105.19
2024-02-02T11:45:52.717Z,106.96
2024-02-02T11:46:52.677Z,109.63
2024-02-02T11:47:52.705Z,110.41
2024-02-02T11:48:52.796Z,113.00
2024-02-02T11:49:52.626Z,115.33
2024-02-02T11:50:52.572Z,120.08
2024-02-02T11:51:52.528Z,123.19
2024-02-02T11:52:52.494Z,127.06
2024-02-02T11:53:52.467Z,126.83
2024-02-02T11:54:52.485Z,128.20
2024-02-02T11:55:52.414Z,128.75
2024-02-02T11:56:52.410Z,128.80
2024-02-02T11:57:52.418Z,128.90
2024-02-02T11:58:52.401Z,131.42
2024-02-02T11:59:54.638Z,133.09
2024-02-02T12:00:52.416Z,134.41
2024-02-02T12:01:52.193Z,136.39
2024-02-02T12:02:52.123Z,137.79
2024-02-02T12:03:52.035Z,139.22
2024-02-02T12:04:51.966Z,137.73
2024-02-02T12:05:51.827Z,140.55
2024-02-02T12:06:51.861Z,143.27
2024-02-02T12:07:51.690Z,145.06
2024-02-02T12:08:51.592Z,146.60
2024-02-02T12:09:51.494Z,145.61
2024-02-02T12:10:51.439Z,146.50
2024-02-02T12:11:51.333Z,147.95
2024-02-02T12:12:51.322Z,144.51
2024-02-02T12:13:51.167Z,145.60
2024-02-02T12:14:51.084Z,147.06
2024-02-02T12:15:51.090Z,147.41
2024-02-02T12:16:50.936Z,147.30
2024-02-02T12:17:50.847Z,148.86
2024-02-02T12:18:51.032Z,149.95
2024-02-02T12:19:50.848Z,149.34
2024-02-02T12:20:50.631Z,149.96
2024-02-02T12:21:50.509Z,150.46
2024-02-02T12:22:50.430Z,151.06
2024-02-02T12:23:50.380Z,151.23
2024-02-02T12:24:50.275Z,151.92
2024-02-02T12:25:50.197Z,152.83
2024-02-02T12:26:50.079Z,155.01
2024-02-02T12:27:50.004Z,157.32
2024-02-02T12:28:50.269Z,159.45
2024-02-02T12:29:49.815Z,159.82
2024-02-02T12:30:49.760Z,162.64
2024-02-02T12:31:49.665Z,161.71
2024-02-02T12:32:49.636Z,161.97
2024-02-02T12:33:49.678Z,165.71
2024-02-02T12:34:49.679Z,163.37
2024-02-02T12:35:49.555Z,163.54
2024-02-02T12:36:49.528Z,163.50
2024-02-02T12:37:49.463Z,162.68
2024-02-02T12:38:49.455Z,165.24
2024-02-02T12:39:49.362Z,164.44
2024-02-02T12:40:49.307Z,165.60
2024-02-02T12:41:49.220Z,161.09
2024-02-02T12:42:49.230Z,163.32
2024-02-02T12:43:49.074Z,162.95
2024-02-02T12:44:48.973Z,159.89
2024-02-02T12:45:48.925Z,162.85
2024-02-02T12:46:48.813Z,160.45
2024-02-02T12:47:48.822Z,161.25
2024-02-02T12:48:48.765Z,160.14
2024-02-02T12:49:48.678Z,161.17
2024-02-02T12:50:48.536Z,160.24
2024-02-02T12:51:48.512Z,161.07
2024-02-02T12:52:48.412Z,158.80
2024-02-02T12:53:48.353Z,157.96
2024-02-02T12:54:48.279Z,158.59
2024-02-02T12:55:48.205Z,156.18
2024-02-02T12:56:48.114Z,155.39
2024-02-02T12:57:48.023Z,155.27
2024-02-02T12:58:48.003Z,154.13
2024-02-02T12:59:47.913Z,150.30
2024-02-02T13:00:48.042Z,153.34
2024-02-02T13:01:47.826Z,151.52
2024-02-02T13:02:48.636Z,150.78
2024-02-02T13:03:47.794Z,148.56
2024-02-02T13:04:47.639Z,148.51
2024-02-02T13:05:47.570Z,146.52
2024-02-02T13:06:47.531Z,147.81
2024-02-02T13:07:47.451Z,143.99
2024-02-02T13:08:47.447Z,145.49
2024-02-02T13:09:47.304Z,141.58
2024-02-02T13:10:47.231Z,140.05
2024-02-02T13:11:47.204Z,140.34
2024-02-02T13:12:47.153Z,139.85
2024-02-02T13:13:47.031Z,134.91
2024-02-02T13:14:46.954Z,132.82
2024-02-02T13:15:46.970Z,132.42
2024-02-02T13:16:46.887Z,130.38
2024-02-02T13:17:46.796Z,125.10
2024-02-02T13:18:46.883Z,126.20
2024-02-02T13:19:47.198Z,127.48
2024-02-02T13:20:46.697Z,126.60
2024-02-02T13:21:46.546Z,124.15
2024-02-02T13:22:46.459Z,120.15